createdAt,value
2019-03-16T00:00:07.788Z,86.50
2019-03-16T00:02:36.248Z,86.30
2019-03-16T00:05:06.336Z,86.90
2019-03-16T00:07:34.863Z,86.40
2019-03-16T00:10:03.433Z,86.60
2019-03-16T00:12:31.864Z,86.50
2019-03-16T00:15:00.402Z,86.60
2019-03-16T00:17:28.936Z,86.60
2019-03-16T00:19:57.364Z,86.80
2019-03-16T00:22:25.823Z,86.70
2019-03-16T00:24:54.244Z,86.80
2019-03-16T00:27:22.677Z,87.00
2019-03-16T00:29:51.198Z,87.30
2019-03-16T00:32:19.763Z,87.50
2019-03-16T00:34:48.264Z,87.10
2019-03-16T00:37:16.790Z,86.70
2019-03-16T00:39:45.245Z,86.60
2019-03-16T00:42:13.657Z,86.70
2019-03-16T00:44:42.143Z,87.00
2019-03-16T00:47:10.625Z,86.90
2019-03-16T00:49:39.073Z,87.20
2019-03-16T00:52:07.497Z,86.80
2019-03-16T00:54:35.977Z,86.80
2019-03-16T00:57:04.479Z,86.60
2019-03-16T00:59:32.905Z,86.50
2019-03-16T01:02:01.357Z,86.50
2019-03-16T01:04:29.789Z,86.40
2019-03-16T01:06:58.335Z,86.20
2019-03-16T01:09:26.766Z,86.10
2019-03-16T01:11:55.221Z,85.70
2019-03-16T01:14:23.640Z,85.40
2019-03-16T01:16:52.092Z,85.80
2019-03-16T01:19:20.545Z,85.90
2019-03-16T01:21:48.964Z,86.90
2019-03-16T01:24:17.412Z,86.10
2019-03-16T01:26:45.832Z,85.80
2019-03-16T01:29:14.284Z,86.00
2019-03-16T01:31:42.729Z,86.20
2019-03-16T01:34:11.188Z,86.10
2019-03-16T01:36:39.613Z,86.40
2019-03-16T01:39:08.738Z,86.30
2019-03-16T01:41:37.173Z,86.10
2019-03-16T01:44:05.687Z,86.00
2019-03-16T01:46:34.119Z,86.10
2019-03-16T01:49:02.589Z,86.00
2019-03-16T01:51:31.015Z,85.60
2019-03-16T01:53:59.469Z,85.60
2019-03-16T01:56:27.896Z,85.90
2019-03-16T01:58:56.356Z,85.60
2019-03-16T02:01:24.800Z,85.40
2019-03-16T02:03:53.248Z,85.60
2019-03-16T02:06:21.703Z,85.70
2019-03-16T02:08:50.129Z,85.70
2019-03-16T02:11:18.583Z,85.40
2019-03-16T02:13:47.078Z,85.60
2019-03-16T02:16:15.528Z,86.00
2019-03-16T02:18:43.954Z,86.20
2019-03-16T02:21:12.428Z,86.20
2019-03-16T02:23:40.876Z,86.40
2019-03-16T02:26:09.294Z,86.10
2019-03-16T02:28:37.721Z,86.10
2019-03-16T02:31:06.317Z,86.60
2019-03-16T02:33:34.775Z,86.30
2019-03-16T02:36:03.217Z,86.40
2019-03-16T02:38:31.685Z,86.70
2019-03-16T02:41:00.174Z,86.90
2019-03-16T02:43:28.638Z,87.20
2019-03-16T02:45:57.073Z,87.10
2019-03-16T02:48:25.533Z,87.10
2019-03-16T02:50:53.996Z,87.20
2019-03-16T02:53:22.426Z,87.20
2019-03-16T02:55:50.883Z,87.40
2019-03-16T02:58:19.344Z,87.30
2019-03-16T03:00:47.856Z,87.40
2019-03-16T03:03:28.725Z,87.60
2019-03-16T03:05:46.441Z,87.70
2019-03-16T03:08:14.901Z,87.80
2019-03-16T03:10:43.336Z,87.70
2019-03-16T03:13:13.762Z,87.90
2019-03-16T03:15:42.019Z,88.00
2019-03-16T03:18:10.450Z,87.90
2019-03-16T03:20:38.967Z,88.20
2019-03-16T03:23:07.402Z,88.30
2019-03-16T03:25:35.866Z,88.40
2019-03-16T03:28:04.901Z,88.40
2019-03-16T03:30:33.296Z,88.70
2019-03-16T03:33:01.765Z,89.00
2019-03-16T03:35:30.382Z,89.20
2019-03-16T03:37:58.827Z,89.40
2019-03-16T03:40:27.274Z,88.60
2019-03-16T03:42:55.728Z,89.80
2019-03-16T03:45:24.288Z,89.80
2019-03-16T03:47:52.754Z,90.00
2019-03-16T03:50:21.183Z,90.10
2019-03-16T03:52:49.610Z,90.10
2019-03-16T03:55:18.052Z,90.10
2019-03-16T03:57:46.567Z,90.20
2019-03-16T04:00:18.895Z,90.20
2019-03-16T04:02:47.477Z,90.30
2019-03-16T04:05:15.913Z,90.20
2019-03-16T04:07:44.491Z,90.20
2019-03-16T04:10:13.442Z,90.30
2019-03-16T04:12:41.999Z,90.10
2019-03-16T04:15:12.039Z,90.10
2019-03-16T04:17:40.505Z,90.20
2019-03-16T04:20:13.561Z,90.20
2019-03-16T04:22:42.082Z,90.20
2019-03-16T04:25:10.533Z,90.20
2019-03-16T04:27:38.973Z,90.30
2019-03-16T04:30:10.094Z,90.30
2019-03-16T04:32:39.057Z,90.20
2019-03-16T04:35:07.724Z,90.30
2019-03-16T04:37:36.159Z,90.20
2019-03-16T04:40:06.553Z,90.20
2019-03-16T04:42:34.980Z,90.20
2019-03-16T04:45:03.908Z,90.00
2019-03-16T04:47:32.372Z,90.00
2019-03-16T04:50:00.794Z,89.90
2019-03-16T04:52:29.253Z,89.90
2019-03-16T04:54:57.700Z,90.00
2019-03-16T04:57:26.152Z,90.00
2019-03-16T04:59:54.596Z,89.60
2019-03-16T05:02:23.060Z,89.70
2019-03-16T05:04:51.489Z,89.50
2019-03-16T05:07:19.941Z,88.80
2019-03-16T05:09:48.400Z,85.70
2019-03-16T05:12:16.820Z,85.20
2019-03-16T05:14:45.272Z,81.20
2019-03-16T05:17:13.719Z,81.70
2019-03-16T05:19:42.191Z,82.00
2019-03-16T05:22:10.690Z,81.30
2019-03-16T05:24:39.108Z,81.20
2019-03-16T05:27:07.548Z,81.60
2019-03-16T05:29:35.980Z,82.60
2019-03-16T05:32:04.456Z,84.10
2019-03-16T05:34:32.877Z,86.50
2019-03-16T05:37:01.711Z,87.10
2019-03-16T05:39:30.185Z,87.60
2019-03-16T05:41:58.655Z,88.30
2019-03-16T05:44:27.133Z,89.70
2019-03-16T05:46:55.589Z,90.20
2019-03-16T05:49:24.050Z,90.40
2019-03-16T05:51:52.508Z,90.60
2019-03-16T05:54:20.969Z,91.10
2019-03-16T05:56:49.419Z,91.10
2019-03-16T05:59:17.875Z,91.50
2019-03-16T06:01:46.328Z,91.90
2019-03-16T06:04:14.761Z,92.10
2019-03-16T06:06:43.222Z,92.00
2019-03-16T06:09:11.682Z,92.30
2019-03-16T06:11:40.148Z,92.50
2019-03-16T06:14:08.577Z,92.70
2019-03-16T06:16:37.003Z,92.80
2019-03-16T06:19:05.898Z,92.70
2019-03-16T06:21:34.350Z,92.70
2019-03-16T06:24:02.809Z,92.70
2019-03-16T06:26:31.237Z,92.80
2019-03-16T06:28:59.692Z,92.90
2019-03-16T06:31:28.137Z,92.90
2019-03-16T06:33:56.651Z,93.10
2019-03-16T06:36:25.107Z,93.10
2019-03-16T06:38:53.558Z,93.40
2019-03-16T06:41:21.997Z,93.30
2019-03-16T06:43:50.458Z,93.40
2019-03-16T06:46:18.893Z,93.70
2019-03-16T06:48:47.361Z,93.60
2019-03-16T06:51:15.791Z,93.80
2019-03-16T06:53:44.282Z,94.00
2019-03-16T06:56:12.767Z,94.10
2019-03-16T06:58:41.314Z,94.00
2019-03-16T07:01:09.740Z,94.30
2019-03-16T07:03:38.983Z,94.30
2019-03-16T07:06:07.421Z,94.60
2019-03-16T07:08:35.856Z,94.60
2019-03-16T07:11:04.302Z,94.80
2019-03-16T07:13:32.801Z,94.90
2019-03-16T07:16:01.264Z,94.90
2019-03-16T07:18:29.672Z,95.00
2019-03-16T07:20:58.125Z,95.00
2019-03-16T07:23:26.603Z,95.00
2019-03-16T07:25:55.284Z,95.50
2019-03-16T07:28:23.709Z,95.40
2019-03-16T07:30:52.136Z,95.60
2019-03-16T07:33:20.604Z,95.40
2019-03-16T07:35:49.024Z,95.40
2019-03-16T07:38:17.469Z,95.70
2019-03-16T07:40:45.902Z,95.40
2019-03-16T07:43:14.421Z,95.60
2019-03-16T07:45:42.880Z,96.10
2019-03-16T07:48:11.341Z,96.00
2019-03-16T07:50:39.777Z,96.00
2019-03-16T07:53:08.237Z,95.70
2019-03-16T07:55:36.671Z,95.90
2019-03-16T07:58:05.134Z,95.80
2019-03-16T08:00:33.561Z,96.60
2019-03-16T08:03:02.000Z,96.10
2019-03-16T08:05:30.437Z,95.90
2019-03-16T08:07:58.897Z,96.30
2019-03-16T08:10:27.340Z,96.00
2019-03-16T08:12:55.801Z,96.50
2019-03-16T08:15:24.230Z,96.90
2019-03-16T08:17:52.677Z,97.10
2019-03-16T08:20:21.205Z,97.20
2019-03-16T08:22:49.624Z,97.30
2019-03-16T08:25:18.081Z,97.30
2019-03-16T08:27:54.211Z,97.50
2019-03-16T08:30:16.828Z,97.50
2019-03-16T08:32:45.332Z,97.30
2019-03-16T08:35:14.069Z,97.50
2019-03-16T08:37:42.495Z,97.30
2019-03-16T08:40:11.675Z,97.70
2019-03-16T08:42:40.106Z,97.80
2019-03-16T08:45:09.993Z,97.60
2019-03-16T08:47:38.562Z,98.10
2019-03-16T08:50:09.012Z,98.10
2019-03-16T08:52:37.442Z,98.00
2019-03-16T08:55:07.740Z,98.30
2019-03-16T08:57:36.164Z,98.50
2019-03-16T09:00:10.279Z,98.00
2019-03-16T09:02:38.710Z,98.20
2019-03-16T09:05:08.207Z,98.40
2019-03-16T09:07:36.624Z,98.60
2019-03-16T09:10:07.293Z,98.70
2019-03-16T09:12:35.797Z,98.90
2019-03-16T09:15:11.894Z,99.10
2019-03-16T09:17:40.943Z,99.30
2019-03-16T09:20:09.797Z,99.20
2019-03-16T09:22:38.415Z,99.30
2019-03-16T09:25:08.993Z,99.40
2019-03-16T09:27:37.446Z,99.60
2019-03-16T09:30:11.561Z,99.50
2019-03-16T09:32:40.089Z,99.70
2019-03-16T09:35:08.656Z,99.90
2019-03-16T09:37:37.157Z,99.90
2019-03-16T09:40:08.311Z,99.80
2019-03-16T09:42:36.763Z,99.80
2019-03-16T09:45:07.865Z,99.70
2019-03-16T09:47:36.302Z,99.80
2019-03-16T09:50:07.775Z,99.80
2019-03-16T09:52:36.205Z,99.90
2019-03-16T09:55:09.552Z,99.80
2019-03-16T09:57:37.981Z,99.90
2019-03-16T10:00:12.833Z,99.90
2019-03-16T10:02:41.743Z,99.90
2019-03-16T10:05:10.280Z,99.90
2019-03-16T10:07:38.865Z,99.90
2019-03-16T10:10:10.716Z,99.90
2019-03-16T10:12:39.279Z,99.90
2019-03-16T10:15:12.860Z,99.90
2019-03-16T10:17:41.316Z,99.80
2019-03-16T10:20:11.656Z,99.90
2019-03-16T10:22:40.092Z,99.90
2019-03-16T10:25:30.482Z,99.90
2019-03-16T10:27:58.976Z,99.90
2019-03-16T10:30:46.764Z,99.70
2019-03-16T10:33:15.235Z,99.60
2019-03-16T10:35:43.674Z,99.20
2019-03-16T10:38:12.138Z,99.10
2019-03-16T10:40:43.076Z,99.00
2019-03-16T10:43:11.622Z,99.00
2019-03-16T10:45:40.648Z,98.80
2019-03-16T10:48:09.080Z,98.80
2019-03-16T10:50:37.583Z,98.60
2019-03-16T10:53:06.047Z,98.70
2019-03-16T10:55:34.507Z,98.20
2019-03-16T10:58:02.962Z,98.00
2019-03-16T11:00:31.454Z,98.00
2019-03-16T11:03:00.841Z,97.60
2019-03-16T11:05:29.270Z,97.70
2019-03-16T11:08:00.520Z,97.40
2019-03-16T11:10:28.954Z,97.20
2019-03-16T11:12:57.416Z,97.40
2019-03-16T11:15:26.009Z,97.50
2019-03-16T11:17:54.465Z,97.40
2019-03-16T11:20:22.957Z,97.50
2019-03-16T11:22:51.855Z,97.20
2019-03-16T11:25:21.202Z,97.10
2019-03-16T11:27:49.673Z,96.70
2019-03-16T11:30:21.690Z,96.60
2019-03-16T11:32:51.764Z,96.70
2019-03-16T11:35:20.624Z,96.80
2019-03-16T11:37:49.173Z,96.50
2019-03-16T11:40:18.770Z,96.80
2019-03-16T11:42:47.309Z,96.60
2019-03-16T11:45:17.203Z,96.90
2019-03-16T11:47:46.182Z,97.10
2019-03-16T11:50:14.879Z,97.30
2019-03-16T11:52:43.305Z,97.50
2019-03-16T11:55:12.024Z,97.60
2019-03-16T11:57:40.464Z,97.10
2019-03-16T12:00:11.507Z,97.10
2019-03-16T12:02:40.002Z,97.00
2019-03-16T12:05:10.519Z,96.90
2019-03-16T12:07:39.144Z,97.00
2019-03-16T12:10:12.407Z,97.00
2019-03-16T12:12:40.912Z,96.80
2019-03-16T12:15:11.792Z,96.80
2019-03-16T12:17:40.313Z,96.60
2019-03-16T12:20:11.677Z,96.60
2019-03-16T12:22:40.130Z,96.60
2019-03-16T12:25:08.745Z,96.50
2019-03-16T12:27:37.239Z,96.40
2019-03-16T12:30:08.446Z,96.10
2019-03-16T12:32:36.962Z,96.00
2019-03-16T12:35:07.174Z,95.70
2019-03-16T12:37:35.642Z,95.50
2019-03-16T12:40:06.461Z,95.30
2019-03-16T12:42:34.894Z,95.70
2019-03-16T12:45:04.171Z,94.70
2019-03-16T12:47:32.646Z,94.60
2019-03-16T12:50:01.205Z,94.20
2019-03-16T12:52:29.681Z,93.70
2019-03-16T12:54:58.116Z,93.70
2019-03-16T12:57:30.615Z,93.40
2019-03-16T12:59:59.125Z,93.50
2019-03-16T13:02:27.590Z,93.30
2019-03-16T13:04:56.077Z,93.10
2019-03-16T13:07:24.530Z,92.90
2019-03-16T13:09:53.044Z,93.00
2019-03-16T13:12:21.514Z,92.90
2019-03-16T13:14:49.956Z,93.30
2019-03-16T13:17:18.422Z,92.80
2019-03-16T13:19:47.005Z,92.80
2019-03-16T13:22:15.453Z,92.70
2019-03-16T13:24:43.916Z,92.90
2019-03-16T13:27:12.354Z,93.10
2019-03-16T13:29:40.817Z,92.90
2019-03-16T13:32:09.346Z,93.10
2019-03-16T13:34:37.785Z,92.80
2019-03-16T13:37:06.237Z,92.80
2019-03-16T13:39:34.671Z,92.60
2019-03-16T13:42:03.228Z,92.70
2019-03-16T13:44:31.727Z,92.90
2019-03-16T13:47:00.181Z,92.90
2019-03-16T13:49:28.610Z,92.90
2019-03-16T13:51:57.057Z,92.80
2019-03-16T13:54:25.674Z,92.90
2019-03-16T13:56:54.162Z,92.70
2019-03-16T13:59:22.619Z,92.10
2019-03-16T14:01:51.077Z,92.20
2019-03-16T14:04:19.538Z,92.40
2019-03-16T14:06:47.998Z,92.30
2019-03-16T14:09:16.541Z,92.40
2019-03-16T14:11:46.944Z,91.50
2019-03-16T14:14:15.853Z,91.00
2019-03-16T14:16:44.288Z,90.80
2019-03-16T14:19:12.727Z,90.90
2019-03-16T14:21:41.601Z,90.60
2019-03-16T14:24:10.048Z,90.70
2019-03-16T14:26:38.501Z,90.80
2019-03-16T14:29:09.093Z,90.70
2019-03-16T14:31:40.087Z,90.50
2019-03-16T14:34:08.524Z,90.50
2019-03-16T14:36:36.982Z,90.70
2019-03-16T14:39:07.326Z,91.20
2019-03-16T14:41:35.856Z,90.70
2019-03-16T14:44:04.846Z,90.80
2019-03-16T14:46:33.382Z,90.80
2019-03-16T14:49:01.826Z,90.70
2019-03-16T14:51:30.298Z,90.60
2019-03-16T14:53:58.740Z,90.80
2019-03-16T14:56:27.479Z,91.10
2019-03-16T14:58:56.276Z,91.00
2019-03-16T15:01:24.699Z,91.00
2019-03-16T15:03:53.182Z,91.10
2019-03-16T15:06:21.617Z,91.10
2019-03-16T15:08:50.107Z,91.30
2019-03-16T15:11:18.632Z,91.20
2019-03-16T15:13:47.074Z,91.60
2019-03-16T15:16:15.536Z,92.00
2019-03-16T15:18:45.102Z,92.70
2019-03-16T15:21:13.831Z,93.40
2019-03-16T15:23:42.298Z,93.70
2019-03-16T15:26:11.172Z,93.80
2019-03-16T15:28:39.640Z,93.60
2019-03-16T15:31:08.194Z,93.30
2019-03-16T15:33:36.703Z,93.10
2019-03-16T15:36:05.203Z,92.60
2019-03-16T15:38:33.678Z,92.30
2019-03-16T15:41:02.194Z,91.50
2019-03-16T15:43:30.758Z,91.10
2019-03-16T15:45:59.229Z,91.40
2019-03-16T15:48:27.679Z,91.10
2019-03-16T15:50:56.532Z,90.80
2019-03-16T15:53:24.958Z,90.70
2019-03-16T15:55:53.417Z,91.00
2019-03-16T15:58:21.877Z,90.70
2019-03-16T16:01:02.753Z,90.40
2019-03-16T16:03:20.501Z,90.20
2019-03-16T16:05:48.962Z,90.30
2019-03-16T16:08:19.390Z,89.60
2019-03-16T16:10:59.660Z,88.80
2019-03-16T16:13:17.750Z,87.30
2019-03-16T16:15:46.295Z,87.40
2019-03-16T16:18:14.870Z,86.80
2019-03-16T16:20:43.349Z,86.40
2019-03-16T16:23:11.833Z,87.50
2019-03-16T16:25:40.417Z,86.70
2019-03-16T16:28:08.993Z,86.10
2019-03-16T16:30:37.521Z,86.10
2019-03-16T16:33:06.056Z,85.40
2019-03-16T16:35:34.503Z,84.90
2019-03-16T16:38:03.000Z,84.80
2019-03-16T16:40:31.502Z,85.00
2019-03-16T16:43:00.009Z,84.00
2019-03-16T16:45:29.538Z,84.20
2019-03-16T16:47:58.041Z,84.90
2019-03-16T16:50:27.434Z,85.40
2019-03-16T16:52:55.956Z,86.10
2019-03-16T16:55:25.826Z,85.70
2019-03-16T16:57:54.311Z,86.10
2019-03-16T17:00:27.376Z,86.20
2019-03-16T17:02:58.662Z,86.50
2019-03-16T17:05:27.228Z,86.80
2019-03-16T17:07:55.713Z,86.40
2019-03-16T17:10:26.529Z,86.30
2019-03-16T17:12:55.096Z,85.60
2019-03-16T17:15:27.120Z,85.70
2019-03-16T17:17:57.923Z,85.30
2019-03-16T17:20:26.450Z,84.70
2019-03-16T17:22:56.589Z,84.90
2019-03-16T17:25:26.621Z,84.70
2019-03-16T17:27:55.097Z,84.60
2019-03-16T17:30:26.669Z,86.00
2019-03-16T17:32:55.211Z,85.70
2019-03-16T17:35:23.802Z,86.30
2019-03-16T17:37:52.336Z,86.20
2019-03-16T17:40:24.675Z,86.60
2019-03-16T17:42:58.575Z,86.50
2019-03-16T17:45:28.493Z,86.20
2019-03-16T17:47:57.120Z,86.90
2019-03-16T17:50:25.594Z,87.10
2019-03-16T17:52:57.186Z,87.80
2019-03-16T17:55:25.752Z,86.60
2019-03-16T17:57:55.782Z,86.60
2019-03-16T18:00:27.267Z,86.90
2019-03-16T18:02:55.828Z,86.90
2019-03-16T18:05:24.363Z,86.30
2019-03-16T18:07:52.872Z,86.30
2019-03-16T18:10:22.575Z,86.10
2019-03-16T18:12:52.097Z,85.20
2019-03-16T18:15:21.440Z,85.40
2019-03-16T18:17:52.701Z,85.20
2019-03-16T18:20:25.101Z,84.40
2019-03-16T18:22:54.165Z,84.70
2019-03-16T18:25:24.327Z,84.80
2019-03-16T18:27:56.721Z,84.70
2019-03-16T18:30:25.684Z,84.60
2019-03-16T18:32:54.146Z,84.20
2019-03-16T18:35:22.595Z,84.20
2019-03-16T18:37:51.123Z,84.60
2019-03-16T18:40:20.232Z,84.80
2019-03-16T18:42:48.729Z,84.10
2019-03-16T18:45:22.607Z,83.80
2019-03-16T18:47:51.158Z,83.90
2019-03-16T18:50:23.628Z,84.10
2019-03-16T18:52:52.051Z,84.10
2019-03-16T18:55:20.588Z,84.20
2019-03-16T18:57:51.954Z,84.10
2019-03-16T19:00:20.694Z,84.70
2019-03-16T19:02:50.755Z,84.60
2019-03-16T19:05:20.279Z,84.60
2019-03-16T19:07:51.326Z,84.30
2019-03-16T19:13:09.025Z,84.50
2019-03-16T19:15:37.465Z,84.00
2019-03-16T19:18:06.008Z,84.10
2019-03-16T19:20:34.444Z,84.50
2019-03-16T19:23:02.905Z,84.00
2019-03-16T19:25:31.510Z,83.60
2019-03-16T19:27:59.973Z,83.20
2019-03-16T19:30:28.420Z,83.60
2019-03-16T19:32:56.874Z,83.50
2019-03-16T19:35:25.309Z,83.50
2019-03-16T19:37:53.775Z,83.20
2019-03-16T19:40:23.643Z,83.00
2019-03-16T19:42:52.096Z,82.70
2019-03-16T19:45:20.543Z,83.20
2019-03-16T19:47:49.074Z,82.80
2019-03-16T19:50:17.856Z,82.90
2019-03-16T19:52:46.916Z,82.60
2019-03-16T19:55:15.577Z,83.00
2019-03-16T19:57:44.004Z,82.30
2019-03-16T20:00:16.320Z,82.70
2019-03-16T20:02:50.113Z,82.30
2019-03-16T20:05:15.145Z,82.30
2019-03-16T20:07:43.572Z,82.60
2019-03-16T20:10:13.967Z,82.20
2019-03-16T20:12:42.464Z,82.30
2019-03-16T20:15:13.071Z,82.20
2019-03-16T20:17:41.480Z,82.00
2019-03-16T20:20:11.566Z,81.80
2019-03-16T20:22:40.087Z,81.90
2019-03-16T20:25:09.075Z,81.80
2019-03-16T20:27:37.536Z,81.50
2019-03-16T20:30:13.967Z,81.60
2019-03-16T20:32:42.451Z,81.70
2019-03-16T20:35:11.043Z,81.70
2019-03-16T20:37:39.503Z,83.00
2019-03-16T20:40:13.489Z,82.10
2019-03-16T20:42:41.943Z,82.00
2019-03-16T20:45:11.027Z,81.90
2019-03-16T20:47:39.605Z,82.00
2019-03-16T20:50:11.082Z,81.80
2019-03-16T20:52:39.500Z,81.30
2019-03-16T20:55:09.699Z,81.60
2019-03-16T20:57:38.196Z,81.50
2019-03-16T21:00:14.872Z,81.50
2019-03-16T21:02:43.383Z,81.20
2019-03-16T21:05:12.165Z,81.50
2019-03-16T21:07:40.618Z,81.70
2019-03-16T21:10:10.684Z,81.60
2019-03-16T21:12:39.985Z,81.70
2019-03-16T21:15:10.694Z,81.30
2019-03-16T21:17:39.132Z,81.20
2019-03-16T21:20:10.666Z,81.30
2019-03-16T21:22:39.390Z,81.80
2019-03-16T21:25:09.869Z,81.80
2019-03-16T21:27:38.346Z,81.80
2019-03-16T21:30:20.926Z,81.90
2019-03-16T21:32:49.450Z,81.80
2019-03-16T21:35:17.982Z,82.20
2019-03-16T21:37:46.440Z,82.40
2019-03-16T21:40:15.454Z,82.30
2019-03-16T21:42:44.088Z,82.70
2019-03-16T21:45:14.245Z,83.10
2019-03-16T21:47:42.723Z,83.00
2019-03-16T21:50:13.467Z,83.00
2019-03-16T21:52:44.478Z,82.60
2019-03-16T21:55:13.087Z,82.80
2019-03-16T21:57:41.607Z,82.90
2019-03-16T22:00:12.586Z,82.90
2019-03-16T22:02:41.090Z,82.70
2019-03-16T22:05:10.273Z,83.80
2019-03-16T22:07:38.945Z,83.00
2019-03-16T22:10:12.169Z,83.10
2019-03-16T22:12:40.605Z,82.90
2019-03-16T22:15:16.586Z,83.00
2019-03-16T22:17:45.418Z,82.80
2019-03-16T22:20:18.828Z,83.00
2019-03-16T22:22:47.293Z,83.20
2019-03-16T22:25:16.000Z,83.30
2019-03-16T22:27:44.580Z,83.20
2019-03-16T22:30:17.084Z,83.00
2019-03-16T22:32:45.676Z,82.80
2019-03-16T22:35:14.177Z,83.20
2019-03-16T22:37:42.761Z,83.20
2019-03-16T22:40:15.612Z,82.70
2019-03-16T22:42:44.145Z,82.90
2019-03-16T22:45:13.621Z,83.20
2019-03-16T22:47:42.758Z,82.90
2019-03-16T22:50:15.989Z,82.70
2019-03-16T22:52:44.459Z,83.00
2019-03-16T22:55:15.602Z,82.80
2019-03-16T22:57:43.128Z,83.20
2019-03-16T23:00:21.271Z,83.30
2019-03-16T23:02:49.711Z,82.80
2019-03-16T23:05:18.357Z,82.60
2019-03-16T23:07:46.878Z,82.90
2019-03-16T23:10:15.302Z,82.70
2019-03-16T23:12:43.749Z,82.50
2019-03-16T23:15:12.533Z,82.90
2019-03-16T23:17:41.077Z,82.60
2019-03-16T23:23:07.617Z,82.40
2019-03-16T23:25:36.084Z,82.50
2019-03-16T23:28:04.644Z,82.70
2019-03-16T23:30:33.064Z,83.00
2019-03-16T23:33:01.550Z,82.80
2019-03-16T23:35:30.021Z,82.70
2019-03-16T23:37:58.447Z,82.90
2019-03-16T23:40:26.913Z,82.50
2019-03-16T23:42:55.381Z,82.80
2019-03-16T23:45:23.813Z,82.80
2019-03-16T23:47:52.804Z,83.00
2019-03-16T23:50:21.346Z,83.20
2019-03-16T23:52:49.783Z,83.10
2019-03-16T23:55:18.208Z,83.30
2019-03-16T23:57:46.728Z,83.30
